Terminal Aerodrome Forecast
Issued by NWS

Home | Current Version | Previous Version | Graphics & Text | Print | Product List | Glossary On
Versions: 1 2 3 4 5 6 7 8 9 10 11 12 13 14 15 16
000
FTUS43 KICT 122300
TAFSLN
TAF
KSLN 122340Z 1300/1324 01013KT P6SM OVC035
     FM130200 04007KT P6SM SCT035
     FM130500 00000KT P6SM SKC
     FM131100 17007KT P6SM SKC=

USA.gov is the U.S. government's official web portal to all federal, state and local government web resources and services.